• Join FlightAware (Why Join?)
  • Login
  • US Flag 
06:37AM EDT


 

Airport Tracker/Info


-or-


 

Live Flight TrackerFlight Track Log ✈ GJS6241 ✈ 19-Apr-2013 ✈ KLGA - KCHO

Flight Track Log - Related Links

Times and Time Zones

All times are in EDT time to prevent confusion due to time zone crossing. See the GJS6241 flight status page for this flight to view local times or setup timezone preferences in your user account.

Time Position Orientation Groundspeed Altitude Reporting Facility
EDT Latitude Longitude Course Direction KTS MPH feet Rate Location/Type
11:12PM 40.7333 -73.8333 207° Southwest 176 203 2,900  Level New York TRACON
11:13PM 40.6833 -73.8667 207° Southwest 190 219 6,000 2,880 Climbing New York TRACON
11:14PM 40.6833 -73.9333 270° West 213 245 8,700 2,100 Climbing New York TRACON
11:15PM 40.7333 -74.0000 315° West 304 350 10,300 1,680 Climbing New York TRACON
11:15PM 40.8167 -74.0500 336° Northwest 337 388 12,000 900 Climbing New York TRACON
11:16PM 40.8500 -74.1167 336° Northwest 286 329 12,100 780 Climbing New York TRACON
11:17PM 40.8333 -74.2000 255° West 246 283 13,600 1,200 Climbing New York TRACON
11:18PM 40.7833 -74.2833 232° Southwest 298 343 14,600 960 Climbing New York TRACON
11:20PM 40.7333 -74.4000 241° Southwest 332 382 15,700 1,020 Climbing New York TRACON
11:20PM 40.6833 -74.4833 232° Southwest 346 398 16,700 660 Climbing New York TRACON
11:21PM 40.6167 -74.6000 233° Southwest 349 402 17,000 120 Climbing New York TRACON
11:22PM 40.5667 -74.7000 237° Southwest 338 389 17,000  Level New York TRACON
11:23PM 40.5167 -74.8000 237° Southwest 330 380 17,000  Level New York TRACON
11:24PM 40.4667 -74.9000 237° Southwest 342 394 17,000  Level New York TRACON
11:25PM 40.4247 -74.9642 229° Southwest 342 394 17,000 480 Level New York Center
11:26PM 40.3586 -75.0581 227° Southwest 358 412 17,900 1,140 Climbing New York Center
11:27PM 40.2950 -75.1494 228° Southwest 350 403 19,300 1,140 Climbing New York Center
11:28PM 40.2308 -75.2433 228° Southwest 350 403 20,200 1,020 Climbing New York Center
11:29PM 40.1539 -75.3522 227° Southwest 363 418 21,400 900 Climbing New York Center
11:30PM 40.0833 -75.4508 227° Southwest 368 423 22,000 300 Climbing New York Center
11:31PM 40.0128 -75.5436 225° Southwest 368 423 22,000  Level New York Center
11:32PM 39.9464 -75.6367 227° Southwest 368 423 22,000  Level New York Center
11:33PM 39.8797 -75.7347 228° Southwest 363 418 22,000  Level New York Center
11:34PM 39.8169 -75.8386 232° Southwest 369 425 22,000  Level New York Center
11:35PM 39.7497 -75.9444 230° Southwest 375 432 22,000  Level New York Center
11:37PM 39.6206 -76.1492 231° Southwest 373 429 22,000  Level Washington Center
11:38PM 39.5556 -76.2483 230° Southwest 368 423 22,000  Level Washington Center
11:39PM 39.4944 -76.3444 231° Southwest 368 423 22,000  Level Washington Center
11:40PM 39.4294 -76.4406 229° Southwest 368 423 22,000  Level Washington Center
11:41PM 39.3703 -76.5311 230° Southwest 363 418 22,000  Level Washington Center
11:41PM 39.3500 -76.5667 234° Southwest 354 407 22,000  Level Potomac TRACON
11:43PM 39.2833 -76.6667 229° Southwest 353 406 22,000  Level Potomac TRACON
11:44PM 39.2333 -76.7667 237° Southwest 348 400 22,000  Level Potomac TRACON
11:45PM 39.1667 -76.8500 224° Southwest 343 395 22,000  Level Potomac TRACON
11:46PM 39.1000 -76.9500 229° Southwest 338 389 22,000  Level Potomac TRACON
11:47PM 39.0500 -77.0333 232° Southwest 334 384 22,000  Level Potomac TRACON
11:48PM 38.9667 -77.1167 218° Southwest 333 383 22,000  Level Potomac TRACON
11:49PM 38.9000 -77.2000 224° Southwest 335 386 22,000 -720 Level Potomac TRACON
11:50PM 38.8333 -77.2667 218° Southwest 340 391 20,600 -960 Descending Potomac TRACON
11:51PM 38.7667 -77.3500 224° Southwest 320 368 20,000 -300 Descending Potomac TRACON
11:52PM 38.7000 -77.4167 218° Southwest 299 344 20,000 -420 Level Potomac TRACON
11:53PM 38.6333 -77.4833 218° Southwest 260 299 19,200 -1,140 Descending Potomac TRACON
11:54PM 38.5833 -77.5333 218° Southwest 257 296 17,800 -1,380 Descending Potomac TRACON
11:55PM 38.5333 -77.6000 226° Southwest 266 306 16,500 -1,320 Descending Potomac TRACON
11:56PM 38.4833 -77.6833 233° Southwest 271 312 15,200 -1,500 Descending Potomac TRACON
11:57PM 38.4500 -77.7500 237° Southwest 261 300 13,600 -1,800 Descending Potomac TRACON
11:58PM 38.4167 -77.8333 243° Southwest 249 287 11,700 -1,740 Descending Potomac TRACON
11:59PM 38.3833 -77.9000 237° Southwest 247 284 10,100 -1,200 Descending Potomac TRACON
12:00AM 38.3500 -77.9667 237° Southwest 242 278 9,300 -1,080 Descending Potomac TRACON
12:01AM 38.3167 -78.0333 238° Southwest 233 268 7,900 -1,560 Descending Potomac TRACON
12:02AM 38.2667 -78.1167 233° Southwest 235 270 6,100 -1,440 Descending Potomac TRACON
12:03AM 38.2333 -78.1833 238° Southwest 240 276 5,100 -600 Descending Potomac TRACON
12:04AM 38.1833 -78.2333 218° Southwest 241 277 5,000 -540 Descending Potomac TRACON
12:05AM 38.1333 -78.2667 208° Southwest 233 268 4,100 -480 Descending Potomac TRACON
12:06AM 38.0833 -78.3167 218° Southwest 231 266 4,100  Level Potomac TRACON
12:07AM 38.0333 -78.3500 208° Southwest 232 267 4,100  Level Potomac TRACON
12:08AM 38.0000 -78.4000 230° Southwest 243 280 4,100  Level Potomac TRACON
12:09AM 38.0167 -78.4500 293° West 196 226 4,200 -540 Climbing Potomac TRACON
12:10AM 38.0500 -78.4833 322° Northwest 153 176 3,100 -600 Descending Potomac TRACON
12:11AM 38.0667 -78.5000 322° Northwest 135 155 3,100  Level Potomac TRACON
12:13AM 38.0667 -78.5000 180° South 135 155 3,100  Level Potomac TRACON